createdAt,value
2022-08-22T00:00:03.279Z,50.5
2022-08-22T00:15:03.934Z,50.5
2022-08-22T00:30:06.004Z,50.5
2022-08-22T00:45:02.342Z,50.5
2022-08-22T01:00:06.194Z,50.5
2022-08-22T01:15:02.962Z,50
2022-08-22T01:45:03.260Z,50
2022-08-22T02:00:06.366Z,50.5
2022-08-22T02:15:03.123Z,50.5
2022-08-22T02:30:03.380Z,50.5
2022-08-22T02:45:05.041Z,50.5
2022-08-22T03:00:03.951Z,51
2022-08-22T03:15:04.005Z,51
2022-08-22T03:30:04.085Z,50.5
2022-08-22T03:45:05.149Z,50.5
2022-08-22T04:00:01.989Z,50.5
2022-08-22T04:15:04.256Z,49
2022-08-22T04:30:05.297Z,46
2022-08-22T04:45:06.209Z,45
2022-08-22T05:00:04.948Z,44.5
2022-08-22T05:15:02.442Z,45
2022-08-22T05:30:05.234Z,45.5
2022-08-22T05:45:04.176Z,46
2022-08-22T06:00:06.285Z,46.5
2022-08-22T06:15:03.041Z,47
2022-08-22T06:30:02.276Z,47
2022-08-22T06:45:04.116Z,48
2022-08-22T07:00:02.085Z,47.5
2022-08-22T07:15:02.904Z,48
2022-08-22T07:30:05.129Z,48
2022-08-22T07:45:02.015Z,48.5
2022-08-22T08:00:06.371Z,48.5
2022-08-22T08:15:06.100Z,47.5
2022-08-22T08:30:06.448Z,48
2022-08-22T08:45:03.203Z,47.5
2022-08-22T09:00:01.886Z,48
2022-08-22T09:15:02.298Z,48
2022-08-22T09:30:02.109Z,48
2022-08-22T09:45:01.922Z,48
2022-08-22T10:00:06.292Z,48
2022-08-22T10:15:06.038Z,48.5
2022-08-22T10:30:05.281Z,49
2022-08-22T10:45:02.204Z,49
2022-08-22T11:00:04.956Z,49
2022-08-22T11:15:03.407Z,49
2022-08-22T11:30:05.095Z,49.5
2022-08-22T11:45:01.992Z,49.5
2022-08-22T12:00:02.345Z,49.5
2022-08-22T12:15:05.189Z,49.5
2022-08-22T12:30:05.034Z,50
2022-08-22T12:45:01.990Z,50
2022-08-22T13:00:03.357Z,50
2022-08-22T13:15:05.056Z,52
2022-08-22T13:30:04.446Z,51.5
2022-08-22T13:45:04.920Z,51
2022-08-22T14:00:02.350Z,50.5
2022-08-22T14:15:06.179Z,50.5
2022-08-22T14:30:04.435Z,50
2022-08-22T14:45:05.952Z,50
2022-08-22T15:00:02.267Z,49.5
2022-08-22T15:15:02.081Z,49
2022-08-22T15:30:02.508Z,49
2022-08-22T15:45:06.287Z,49.5
2022-08-22T16:00:06.064Z,49
2022-08-22T16:15:05.343Z,49
2022-08-22T16:30:02.235Z,49
2022-08-22T16:45:03.063Z,49
2022-08-22T17:00:02.308Z,49
2022-08-22T17:15:04.080Z,50
2022-08-22T17:30:04.136Z,50.5
2022-08-22T17:45:06.203Z,50
2022-08-22T18:00:01.995Z,50
2022-08-22T18:15:04.407Z,50
2022-08-22T18:30:03.895Z,49.5
2022-08-22T18:45:01.957Z,50
2022-08-22T19:00:03.339Z,50
2022-08-22T19:15:02.932Z,50
2022-08-22T19:30:05.024Z,50
2022-08-22T19:45:05.942Z,50.5
2022-08-22T20:00:05.281Z,50.5
2022-08-22T20:15:06.195Z,51
2022-08-22T20:30:04.963Z,50.5
2022-08-22T20:45:05.425Z,50.5
2022-08-22T21:00:02.351Z,50
2022-08-22T21:15:06.156Z,50.5
2022-08-22T21:30:06.458Z,50.5
2022-08-22T21:45:03.231Z,50.5
2022-08-22T22:00:06.434Z,51
2022-08-22T22:15:02.113Z,51
2022-08-22T22:30:06.453Z,51.5
2022-08-22T22:45:04.220Z,51.5
2022-08-22T23:00:03.317Z,52
2022-08-22T23:15:05.936Z,51.5
2022-08-22T23:30:04.291Z,51.5
2022-08-22T23:45:05.329Z,51.5
